sensor_id;sensor_type;location;lat;lon;timestamp;P1;durP1;ratioP1;P2;durP2;ratioP2
60233;SDS011;49514;43.538;-5.708;2023-03-17T00:01:50;22.15;;;8.05;;
60233;SDS011;49514;43.538;-5.708;2023-03-17T00:04:19;22.60;;;8.25;;
60233;SDS011;49514;43.538;-5.708;2023-03-17T00:06:48;26.15;;;8.52;;
60233;SDS011;49514;43.538;-5.708;2023-03-17T00:09:17;31.02;;;8.75;;
60233;SDS011;49514;43.538;-5.708;2023-03-17T00:11:44;26.65;;;8.30;;
60233;SDS011;49514;43.538;-5.708;2023-03-17T00:14:12;24.10;;;8.82;;
60233;SDS011;49514;43.538;-5.708;2023-03-17T00:16:48;22.60;;;8.23;;
60233;SDS011;49514;43.538;-5.708;2023-03-17T00:19:17;23.23;;;8.77;;
60233;SDS011;49514;43.538;-5.708;2023-03-17T00:21:58;28.27;;;9.23;;
60233;SDS011;49514;43.538;-5.708;2023-03-17T00:24:26;24.97;;;8.70;;
60233;SDS011;49514;43.538;-5.708;2023-03-17T00:26:54;23.75;;;8.07;;
60233;SDS011;49514;43.538;-5.708;2023-03-17T00:29:21;23.42;;;8.18;;
60233;SDS011;49514;43.538;-5.708;2023-03-17T00:31:49;20.08;;;7.20;;
60233;SDS011;49514;43.538;-5.708;2023-03-17T00:34:16;25.10;;;8.80;;
60233;SDS011;49514;43.538;-5.708;2023-03-17T00:36:46;23.98;;;7.68;;
60233;SDS011;49514;43.538;-5.708;2023-03-17T00:39:16;23.20;;;8.70;;
60233;SDS011;49514;43.538;-5.708;2023-03-17T00:41:43;24.38;;;8.25;;
60233;SDS011;49514;43.538;-5.708;2023-03-17T00:44:10;31.70;;;10.40;;
60233;SDS011;49514;43.538;-5.708;2023-03-17T00:46:37;32.08;;;8.88;;
60233;SDS011;49514;43.538;-5.708;2023-03-17T00:49:14;23.77;;;7.18;;
60233;SDS011;49514;43.538;-5.708;2023-03-17T00:51:48;23.30;;;7.05;;
60233;SDS011;49514;43.538;-5.708;2023-03-17T00:54:17;20.33;;;6.78;;
60233;SDS011;49514;43.538;-5.708;2023-03-17T00:56:45;26.73;;;8.90;;
60233;SDS011;49514;43.538;-5.708;2023-03-17T00:59:18;20.83;;;8.07;;
60233;SDS011;49514;43.538;-5.708;2023-03-17T01:01:53;22.53;;;8.27;;
60233;SDS011;49514;43.538;-5.708;2023-03-17T01:04:20;21.90;;;9.05;;
60233;SDS011;49514;43.538;-5.708;2023-03-17T01:06:47;30.50;;;9.57;;
60233;SDS011;49514;43.538;-5.708;2023-03-17T01:09:16;23.98;;;8.98;;
60233;SDS011;49514;43.538;-5.708;2023-03-17T01:11:44;22.50;;;8.82;;
60233;SDS011;49514;43.538;-5.708;2023-03-17T01:14:12;20.02;;;8.85;;
60233;SDS011;49514;43.538;-5.708;2023-03-17T01:16:38;21.25;;;8.15;;
60233;SDS011;49514;43.538;-5.708;2023-03-17T01:19:05;26.35;;;10.75;;
60233;SDS011;49514;43.538;-5.708;2023-03-17T01:21:32;26.88;;;11.38;;
60233;SDS011;49514;43.538;-5.708;2023-03-17T01:23:59;27.93;;;12.33;;
60233;SDS011;49514;43.538;-5.708;2023-03-17T01:26:26;24.27;;;11.77;;
60233;SDS011;49514;43.538;-5.708;2023-03-17T01:28:54;24.85;;;11.52;;
60233;SDS011;49514;43.538;-5.708;2023-03-17T01:31:20;24.40;;;10.93;;
60233;SDS011;49514;43.538;-5.708;2023-03-17T01:33:49;25.48;;;11.18;;
60233;SDS011;49514;43.538;-5.708;2023-03-17T01:36:16;20.73;;;9.88;;
60233;SDS011;49514;43.538;-5.708;2023-03-17T01:38:42;23.27;;;10.57;;
60233;SDS011;49514;43.538;-5.708;2023-03-17T01:41:10;24.17;;;10.60;;
60233;SDS011;49514;43.538;-5.708;2023-03-17T01:43:37;19.80;;;9.47;;
60233;SDS011;49514;43.538;-5.708;2023-03-17T01:54:44;31.00;;;11.27;;
60233;SDS011;49514;43.538;-5.708;2023-03-17T01:57:22;23.52;;;10.20;;
60233;SDS011;49514;43.538;-5.708;2023-03-17T01:59:55;27.00;;;11.23;;
60233;SDS011;49514;43.538;-5.708;2023-03-17T02:02:39;30.67;;;11.80;;
60233;SDS011;49514;43.538;-5.708;2023-03-17T02:05:09;29.10;;;11.63;;
60233;SDS011;49514;43.538;-5.708;2023-03-17T02:07:39;24.73;;;10.02;;
60233;SDS011;49514;43.538;-5.708;2023-03-17T02:10:06;27.50;;;11.02;;
60233;SDS011;49514;43.538;-5.708;2023-03-17T02:12:36;27.13;;;11.45;;
60233;SDS011;49514;43.538;-5.708;2023-03-17T02:15:08;24.60;;;10.70;;
60233;SDS011;49514;43.538;-5.708;2023-03-17T02:17:36;24.20;;;10.03;;
60233;SDS011;49514;43.538;-5.708;2023-03-17T02:22:42;27.17;;;11.40;;
60233;SDS011;49514;43.538;-5.708;2023-03-17T02:25:14;22.20;;;9.73;;
60233;SDS011;49514;43.538;-5.708;2023-03-17T02:27:47;28.00;;;10.90;;
60233;SDS011;49514;43.538;-5.708;2023-03-17T02:30:19;22.20;;;10.23;;
60233;SDS011;49514;43.538;-5.708;2023-03-17T02:32:47;22.67;;;11.07;;
60233;SDS011;49514;43.538;-5.708;2023-03-17T02:35:13;21.52;;;11.18;;
60233;SDS011;49514;43.538;-5.708;2023-03-17T02:37:41;21.42;;;10.40;;
60233;SDS011;49514;43.538;-5.708;2023-03-17T02:40:09;23.00;;;10.70;;
60233;SDS011;49514;43.538;-5.708;2023-03-17T02:42:36;24.30;;;10.95;;
60233;SDS011;49514;43.538;-5.708;2023-03-17T02:45:04;24.48;;;11.23;;
60233;SDS011;49514;43.538;-5.708;2023-03-17T02:47:32;25.38;;;11.32;;
60233;SDS011;49514;43.538;-5.708;2023-03-17T02:49:59;24.67;;;11.88;;
60233;SDS011;49514;43.538;-5.708;2023-03-17T02:52:27;25.02;;;11.70;;
60233;SDS011;49514;43.538;-5.708;2023-03-17T02:54:53;22.48;;;10.85;;
60233;SDS011;49514;43.538;-5.708;2023-03-17T02:57:20;24.40;;;11.20;;
60233;SDS011;49514;43.538;-5.708;2023-03-17T02:59:47;21.87;;;10.70;;
60233;SDS011;49514;43.538;-5.708;2023-03-17T03:02:13;21.75;;;10.85;;
60233;SDS011;49514;43.538;-5.708;2023-03-17T03:04:41;22.50;;;10.77;;
60233;SDS011;49514;43.538;-5.708;2023-03-17T03:07:08;20.40;;;10.52;;
60233;SDS011;49514;43.538;-5.708;2023-03-17T03:09:36;19.83;;;10.43;;
60233;SDS011;49514;43.538;-5.708;2023-03-17T03:12:03;23.63;;;11.63;;
60233;SDS011;49514;43.538;-5.708;2023-03-17T03:14:30;26.27;;;11.82;;
60233;SDS011;49514;43.538;-5.708;2023-03-17T03:16:57;21.35;;;10.40;;
60233;SDS011;49514;43.538;-5.708;2023-03-17T03:19:24;22.38;;;10.32;;
60233;SDS011;49514;43.538;-5.708;2023-03-17T03:21:51;24.35;;;10.93;;
60233;SDS011;49514;43.538;-5.708;2023-03-17T03:24:17;22.60;;;12.00;;
60233;SDS011;49514;43.538;-5.708;2023-03-17T03:26:44;30.63;;;13.05;;
60233;SDS011;49514;43.538;-5.708;2023-03-17T03:29:10;26.35;;;11.57;;
60233;SDS011;49514;43.538;-5.708;2023-03-17T03:31:37;24.93;;;11.40;;
60233;SDS011;49514;43.538;-5.708;2023-03-17T03:34:04;24.23;;;11.55;;
60233;SDS011;49514;43.538;-5.708;2023-03-17T03:36:30;23.23;;;10.70;;
60233;SDS011;49514;43.538;-5.708;2023-03-17T03:38:58;25.98;;;11.35;;
60233;SDS011;49514;43.538;-5.708;2023-03-17T03:41:25;25.50;;;11.43;;
60233;SDS011;49514;43.538;-5.708;2023-03-17T03:43:53;20.73;;;11.33;;
60233;SDS011;49514;43.538;-5.708;2023-03-17T03:46:19;25.88;;;12.30;;
60233;SDS011;49514;43.538;-5.708;2023-03-17T03:48:47;27.10;;;12.35;;
60233;SDS011;49514;43.538;-5.708;2023-03-17T03:51:13;24.63;;;12.30;;
60233;SDS011;49514;43.538;-5.708;2023-03-17T03:53:40;23.92;;;12.25;;
60233;SDS011;49514;43.538;-5.708;2023-03-17T03:56:07;23.40;;;12.77;;
60233;SDS011;49514;43.538;-5.708;2023-03-17T03:58:33;24.45;;;12.65;;
60233;SDS011;49514;43.538;-5.708;2023-03-17T04:01:06;28.45;;;13.40;;
60233;SDS011;49514;43.538;-5.708;2023-03-17T04:03:35;26.65;;;13.27;;
60233;SDS011;49514;43.538;-5.708;2023-03-17T04:06:02;28.13;;;13.27;;
60233;SDS011;49514;43.538;-5.708;2023-03-17T04:08:29;30.92;;;14.63;;
60233;SDS011;49514;43.538;-5.708;2023-03-17T04:10:57;25.70;;;13.53;;
60233;SDS011;49514;43.538;-5.708;2023-03-17T04:13:23;27.33;;;13.88;;
60233;SDS011;49514;43.538;-5.708;2023-03-17T04:15:50;29.93;;;15.50;;
60233;SDS011;49514;43.538;-5.708;2023-03-17T04:18:17;34.47;;;16.40;;
60233;SDS011;49514;43.538;-5.708;2023-03-17T04:20:44;29.43;;;14.43;;
60233;SDS011;49514;43.538;-5.708;2023-03-17T04:23:11;28.05;;;12.95;;
60233;SDS011;49514;43.538;-5.708;2023-03-17T04:25:37;31.90;;;14.20;;
60233;SDS011;49514;43.538;-5.708;2023-03-17T04:28:04;31.13;;;14.13;;
60233;SDS011;49514;43.538;-5.708;2023-03-17T04:30:31;30.05;;;13.48;;
60233;SDS011;49514;43.538;-5.708;2023-03-17T04:32:58;29.13;;;12.77;;
60233;SDS011;49514;43.538;-5.708;2023-03-17T04:35:24;25.58;;;12.32;;
60233;SDS011;49514;43.538;-5.708;2023-03-17T04:37:52;30.77;;;13.47;;
60233;SDS011;49514;43.538;-5.708;2023-03-17T04:40:18;25.77;;;13.20;;
60233;SDS011;49514;43.538;-5.708;2023-03-17T04:42:45;26.20;;;12.35;;
60233;SDS011;49514;43.538;-5.708;2023-03-17T04:45:12;23.95;;;12.13;;
60233;SDS011;49514;43.538;-5.708;2023-03-17T04:47:40;23.45;;;11.65;;
60233;SDS011;49514;43.538;-5.708;2023-03-17T04:50:07;21.98;;;10.48;;
60233;SDS011;49514;43.538;-5.708;2023-03-17T04:52:35;19.23;;;10.10;;
60233;SDS011;49514;43.538;-5.708;2023-03-17T04:55:02;21.60;;;10.20;;
60233;SDS011;49514;43.538;-5.708;2023-03-17T04:57:30;21.45;;;10.00;;
60233;SDS011;49514;43.538;-5.708;2023-03-17T04:59:56;22.52;;;10.23;;
60233;SDS011;49514;43.538;-5.708;2023-03-17T05:02:23;21.77;;;10.77;;
60233;SDS011;49514;43.538;-5.708;2023-03-17T05:04:49;20.15;;;9.63;;
60233;SDS011;49514;43.538;-5.708;2023-03-17T05:07:16;21.02;;;9.85;;
60233;SDS011;49514;43.538;-5.708;2023-03-17T05:09:43;19.85;;;10.05;;
60233;SDS011;49514;43.538;-5.708;2023-03-17T05:12:09;21.58;;;10.13;;
60233;SDS011;49514;43.538;-5.708;2023-03-17T05:14:37;22.90;;;10.30;;
60233;SDS011;49514;43.538;-5.708;2023-03-17T05:17:04;22.15;;;10.80;;
60233;SDS011;49514;43.538;-5.708;2023-03-17T05:19:31;20.92;;;11.77;;
60233;SDS011;49514;43.538;-5.708;2023-03-17T05:21:57;23.63;;;11.77;;
60233;SDS011;49514;43.538;-5.708;2023-03-17T05:24:24;23.10;;;11.53;;
60233;SDS011;49514;43.538;-5.708;2023-03-17T05:26:51;21.70;;;11.75;;
60233;SDS011;49514;43.538;-5.708;2023-03-17T05:29:18;26.40;;;12.20;;
60233;SDS011;49514;43.538;-5.708;2023-03-17T05:31:45;23.33;;;11.93;;
60233;SDS011;49514;43.538;-5.708;2023-03-17T05:34:12;23.25;;;11.80;;
60233;SDS011;49514;43.538;-5.708;2023-03-17T05:36:39;24.37;;;12.30;;
60233;SDS011;49514;43.538;-5.708;2023-03-17T05:39:05;22.20;;;12.13;;
60233;SDS011;49514;43.538;-5.708;2023-03-17T05:41:32;23.13;;;11.88;;
60233;SDS011;49514;43.538;-5.708;2023-03-17T05:43:58;21.57;;;11.60;;
60233;SDS011;49514;43.538;-5.708;2023-03-17T05:46:25;26.00;;;12.43;;
60233;SDS011;49514;43.538;-5.708;2023-03-17T05:48:52;25.20;;;12.23;;
60233;SDS011;49514;43.538;-5.708;2023-03-17T05:51:18;24.70;;;12.80;;
60233;SDS011;49514;43.538;-5.708;2023-03-17T05:53:46;22.15;;;12.45;;
60233;SDS011;49514;43.538;-5.708;2023-03-17T05:56:12;19.90;;;11.80;;
60233;SDS011;49514;43.538;-5.708;2023-03-17T05:58:39;27.80;;;12.40;;
60233;SDS011;49514;43.538;-5.708;2023-03-17T06:01:06;22.40;;;13.10;;
60233;SDS011;49514;43.538;-5.708;2023-03-17T06:03:33;28.10;;;13.40;;
60233;SDS011;49514;43.538;-5.708;2023-03-17T06:05:59;26.23;;;13.05;;
60233;SDS011;49514;43.538;-5.708;2023-03-17T06:08:26;29.38;;;14.07;;
60233;SDS011;49514;43.538;-5.708;2023-03-17T06:10:53;24.40;;;12.70;;
60233;SDS011;49514;43.538;-5.708;2023-03-17T06:13:19;22.73;;;12.57;;
60233;SDS011;49514;43.538;-5.708;2023-03-17T06:15:46;24.30;;;12.38;;
60233;SDS011;49514;43.538;-5.708;2023-03-17T06:18:16;29.52;;;13.77;;
60233;SDS011;49514;43.538;-5.708;2023-03-17T06:20:44;25.77;;;12.65;;
60233;SDS011;49514;43.538;-5.708;2023-03-17T06:23:11;27.10;;;13.23;;
60233;SDS011;49514;43.538;-5.708;2023-03-17T06:25:38;25.70;;;12.23;;
60233;SDS011;49514;43.538;-5.708;2023-03-17T06:28:05;30.97;;;13.97;;
60233;SDS011;49514;43.538;-5.708;2023-03-17T06:30:32;30.98;;;14.48;;
60233;SDS011;49514;43.538;-5.708;2023-03-17T06:33:00;35.50;;;15.35;;
60233;SDS011;49514;43.538;-5.708;2023-03-17T06:35:28;40.95;;;17.33;;
60233;SDS011;49514;43.538;-5.708;2023-03-17T06:37:56;42.38;;;18.33;;
60233;SDS011;49514;43.538;-5.708;2023-03-17T06:40:22;46.37;;;17.60;;
60233;SDS011;49514;43.538;-5.708;2023-03-17T06:42:49;49.67;;;18.27;;
60233;SDS011;49514;43.538;-5.708;2023-03-17T06:45:16;47.55;;;17.83;;
60233;SDS011;49514;43.538;-5.708;2023-03-17T06:47:43;39.90;;;16.65;;
60233;SDS011;49514;43.538;-5.708;2023-03-17T06:50:10;38.53;;;16.42;;
60233;SDS011;49514;43.538;-5.708;2023-03-17T06:52:37;34.20;;;15.50;;
60233;SDS011;49514;43.538;-5.708;2023-03-17T06:55:05;31.77;;;15.40;;
60233;SDS011;49514;43.538;-5.708;2023-03-17T06:57:32;35.10;;;16.90;;
60233;SDS011;49514;43.538;-5.708;2023-03-17T06:59:59;31.13;;;15.40;;
60233;SDS011;49514;43.538;-5.708;2023-03-17T07:02:25;29.77;;;14.90;;
60233;SDS011;49514;43.538;-5.708;2023-03-17T07:04:52;28.67;;;14.77;;
60233;SDS011;49514;43.538;-5.708;2023-03-17T07:07:22;29.15;;;15.73;;
60233;SDS011;49514;43.538;-5.708;2023-03-17T07:09:49;31.02;;;16.05;;
60233;SDS011;49514;43.538;-5.708;2023-03-17T07:12:17;30.70;;;14.38;;
60233;SDS011;49514;43.538;-5.708;2023-03-17T07:14:45;32.40;;;15.48;;
60233;SDS011;49514;43.538;-5.708;2023-03-17T07:17:12;27.73;;;15.05;;
60233;SDS011;49514;43.538;-5.708;2023-03-17T07:19:39;30.00;;;15.23;;
60233;SDS011;49514;43.538;-5.708;2023-03-17T07:22:08;30.42;;;15.93;;
60233;SDS011;49514;43.538;-5.708;2023-03-17T07:24:37;31.42;;;15.90;;
60233;SDS011;49514;43.538;-5.708;2023-03-17T07:27:04;38.17;;;17.27;;
60233;SDS011;49514;43.538;-5.708;2023-03-17T07:29:31;39.33;;;15.35;;
60233;SDS011;49514;43.538;-5.708;2023-03-17T07:31:58;32.95;;;15.30;;
60233;SDS011;49514;43.538;-5.708;2023-03-17T07:34:26;33.40;;;16.38;;
60233;SDS011;49514;43.538;-5.708;2023-03-17T07:36:53;33.85;;;16.48;;
60233;SDS011;49514;43.538;-5.708;2023-03-17T07:39:20;37.70;;;16.95;;
60233;SDS011;49514;43.538;-5.708;2023-03-17T07:41:47;35.50;;;17.08;;
60233;SDS011;49514;43.538;-5.708;2023-03-17T07:44:17;34.67;;;16.50;;
60233;SDS011;49514;43.538;-5.708;2023-03-17T07:46:44;30.43;;;17.13;;
60233;SDS011;49514;43.538;-5.708;2023-03-17T07:49:11;31.92;;;16.58;;
60233;SDS011;49514;43.538;-5.708;2023-03-17T07:51:38;35.92;;;15.95;;
60233;SDS011;49514;43.538;-5.708;2023-03-17T07:54:08;38.10;;;17.48;;
60233;SDS011;49514;43.538;-5.708;2023-03-17T07:56:37;38.30;;;17.58;;
60233;SDS011;49514;43.538;-5.708;2023-03-17T07:59:04;38.78;;;17.25;;
60233;SDS011;49514;43.538;-5.708;2023-03-17T08:01:35;37.08;;;17.88;;
60233;SDS011;49514;43.538;-5.708;2023-03-17T08:04:03;31.92;;;18.50;;
60233;SDS011;49514;43.538;-5.708;2023-03-17T08:06:30;35.08;;;17.35;;
60233;SDS011;49514;43.538;-5.708;2023-03-17T08:08:57;32.95;;;17.10;;
60233;SDS011;49514;43.538;-5.708;2023-03-17T08:11:24;40.17;;;17.73;;
60233;SDS011;49514;43.538;-5.708;2023-03-17T08:13:51;34.27;;;18.03;;
60233;SDS011;49514;43.538;-5.708;2023-03-17T08:16:18;36.95;;;17.42;;
60233;SDS011;49514;43.538;-5.708;2023-03-17T08:18:44;37.35;;;18.67;;
60233;SDS011;49514;43.538;-5.708;2023-03-17T08:21:11;35.42;;;16.95;;
60233;SDS011;49514;43.538;-5.708;2023-03-17T08:23:38;32.30;;;16.70;;
60233;SDS011;49514;43.538;-5.708;2023-03-17T08:26:04;36.17;;;17.55;;
60233;SDS011;49514;43.538;-5.708;2023-03-17T08:28:31;35.78;;;17.10;;
60233;SDS011;49514;43.538;-5.708;2023-03-17T08:31:05;36.08;;;17.70;;
60233;SDS011;49514;43.538;-5.708;2023-03-17T08:33:41;32.77;;;17.30;;
60233;SDS011;49514;43.538;-5.708;2023-03-17T08:39:28;34.72;;;18.50;;
60233;SDS011;49514;43.538;-5.708;2023-03-17T08:41:56;31.50;;;17.80;;
60233;SDS011;49514;43.538;-5.708;2023-03-17T08:44:23;39.90;;;18.50;;
60233;SDS011;49514;43.538;-5.708;2023-03-17T08:46:50;41.40;;;19.55;;
60233;SDS011;49514;43.538;-5.708;2023-03-17T08:49:17;40.78;;;20.35;;
60233;SDS011;49514;43.538;-5.708;2023-03-17T08:51:44;37.75;;;18.38;;
60233;SDS011;49514;43.538;-5.708;2023-03-17T08:54:11;30.83;;;15.82;;
60233;SDS011;49514;43.538;-5.708;2023-03-17T08:56:39;30.07;;;15.43;;
60233;SDS011;49514;43.538;-5.708;2023-03-17T08:59:07;30.83;;;15.20;;
60233;SDS011;49514;43.538;-5.708;2023-03-17T09:01:35;28.40;;;15.30;;
60233;SDS011;49514;43.538;-5.708;2023-03-17T09:04:02;25.20;;;13.60;;
60233;SDS011;49514;43.538;-5.708;2023-03-17T09:06:29;25.65;;;14.52;;
60233;SDS011;49514;43.538;-5.708;2023-03-17T09:08:56;31.52;;;15.30;;
60233;SDS011;49514;43.538;-5.708;2023-03-17T09:11:24;31.02;;;14.80;;
60233;SDS011;49514;43.538;-5.708;2023-03-17T09:13:53;32.20;;;15.02;;
60233;SDS011;49514;43.538;-5.708;2023-03-17T09:16:20;29.77;;;13.82;;
60233;SDS011;49514;43.538;-5.708;2023-03-17T09:18:48;29.33;;;13.83;;
60233;SDS011;49514;43.538;-5.708;2023-03-17T09:21:16;29.48;;;14.20;;
60233;SDS011;49514;43.538;-5.708;2023-03-17T09:23:43;28.60;;;14.93;;
60233;SDS011;49514;43.538;-5.708;2023-03-17T09:26:10;27.20;;;15.15;;
60233;SDS011;49514;43.538;-5.708;2023-03-17T09:28:37;28.97;;;13.63;;
60233;SDS011;49514;43.538;-5.708;2023-03-17T09:31:06;34.80;;;14.80;;
60233;SDS011;49514;43.538;-5.708;2023-03-17T09:33:39;28.70;;;15.13;;
60233;SDS011;49514;43.538;-5.708;2023-03-17T09:36:07;35.35;;;14.75;;
60233;SDS011;49514;43.538;-5.708;2023-03-17T09:38:34;33.67;;;15.20;;
60233;SDS011;49514;43.538;-5.708;2023-03-17T09:49:40;25.60;;;12.18;;
60233;SDS011;49514;43.538;-5.708;2023-03-17T09:52:15;21.42;;;10.75;;
60233;SDS011;49514;43.538;-5.708;2023-03-17T09:54:43;20.10;;;10.77;;
60233;SDS011;49514;43.538;-5.708;2023-03-17T09:59:54;28.92;;;16.08;;
60233;SDS011;49514;43.538;-5.708;2023-03-17T10:02:33;19.83;;;10.90;;
60233;SDS011;49514;43.538;-5.708;2023-03-17T10:05:09;19.17;;;11.57;;
60233;SDS011;49514;43.538;-5.708;2023-03-17T10:10:52;23.77;;;13.07;;
60233;SDS011;49514;43.538;-5.708;2023-03-17T10:17:16;14.40;;;7.00;;
60233;SDS011;49514;43.538;-5.708;2023-03-17T10:19:56;11.88;;;6.40;;
60233;SDS011;49514;43.538;-5.708;2023-03-17T10:25:01;18.23;;;7.20;;
60233;SDS011;49514;43.538;-5.708;2023-03-17T10:27:33;22.52;;;9.85;;
60233;SDS011;49514;43.538;-5.708;2023-03-17T10:30:03;18.52;;;11.00;;
60233;SDS011;49514;43.538;-5.708;2023-03-17T13:05:14;16.40;;;6.28;;
60233;SDS011;49514;43.538;-5.708;2023-03-17T13:07:53;14.10;;;6.00;;
60233;SDS011;49514;43.538;-5.708;2023-03-17T13:10:35;32.55;;;6.28;;
60233;SDS011;49514;43.538;-5.708;2023-03-17T13:13:05;12.52;;;5.13;;
60233;SDS011;49514;43.538;-5.708;2023-03-17T13:18:21;21.00;;;5.78;;
60233;SDS011;49514;43.538;-5.708;2023-03-17T15:16:47;6.80;;;1.75;;
60233;SDS011;49514;43.538;-5.708;2023-03-17T15:19:21;5.10;;;1.65;;
60233;SDS011;49514;43.538;-5.708;2023-03-17T15:25:01;5.25;;;1.90;;
60233;SDS011;49514;43.538;-5.708;2023-03-17T15:27:41;4.60;;;1.80;;
60233;SDS011;49514;43.538;-5.708;2023-03-17T15:30:09;5.10;;;1.92;;
60233;SDS011;49514;43.538;-5.708;2023-03-17T15:32:37;5.28;;;2.13;;
60233;SDS011;49514;43.538;-5.708;2023-03-17T15:35:05;5.32;;;2.00;;
60233;SDS011;49514;43.538;-5.708;2023-03-17T15:37:36;7.53;;;2.13;;
60233;SDS011;49514;43.538;-5.708;2023-03-17T15:40:03;5.17;;;2.00;;
60233;SDS011;49514;43.538;-5.708;2023-03-17T15:42:32;7.45;;;2.03;;
60233;SDS011;49514;43.538;-5.708;2023-03-17T15:45:01;5.35;;;1.85;;
60233;SDS011;49514;43.538;-5.708;2023-03-17T15:47:32;4.70;;;1.87;;
60233;SDS011;49514;43.538;-5.708;2023-03-17T15:50:09;4.85;;;1.65;;
60233;SDS011;49514;43.538;-5.708;2023-03-17T16:02:51;5.35;;;1.50;;
60233;SDS011;49514;43.538;-5.708;2023-03-17T16:12:49;7.30;;;1.60;;
60233;SDS011;49514;43.538;-5.708;2023-03-17T16:42:45;8.15;;;2.75;;
60233;SDS011;49514;43.538;-5.708;2023-03-17T16:45:13;13.98;;;3.40;;
60233;SDS011;49514;43.538;-5.708;2023-03-17T16:47:49;12.75;;;2.75;;
60233;SDS011;49514;43.538;-5.708;2023-03-17T16:50:17;13.48;;;2.50;;
60233;SDS011;49514;43.538;-5.708;2023-03-17T18:09:17;2.85;;;0.85;;
60233;SDS011;49514;43.538;-5.708;2023-03-17T18:11:44;3.25;;;1.20;;
60233;SDS011;49514;43.538;-5.708;2023-03-17T18:14:11;4.75;;;1.10;;
60233;SDS011;49514;43.538;-5.708;2023-03-17T18:16:39;5.50;;;1.30;;
60233;SDS011;49514;43.538;-5.708;2023-03-17T18:19:06;3.95;;;1.17;;
60233;SDS011;49514;43.538;-5.708;2023-03-17T18:21:34;1.92;;;0.80;;
60233;SDS011;49514;43.538;-5.708;2023-03-17T18:24:01;2.00;;;0.77;;
60233;SDS011;49514;43.538;-5.708;2023-03-17T18:26:29;2.78;;;1.10;;
60233;SDS011;49514;43.538;-5.708;2023-03-17T18:28:58;2.63;;;1.08;;
60233;SDS011;49514;43.538;-5.708;2023-03-17T18:31:32;5.35;;;0.90;;
60233;SDS011;49514;43.538;-5.708;2023-03-17T18:34:06;0.90;;;0.60;;
60233;SDS011;49514;43.538;-5.708;2023-03-17T18:36:36;1.20;;;0.77;;
60233;SDS011;49514;43.538;-5.708;2023-03-17T18:39:04;4.10;;;0.90;;
60233;SDS011;49514;43.538;-5.708;2023-03-17T18:41:31;2.47;;;0.50;;
60233;SDS011;49514;43.538;-5.708;2023-03-17T18:43:59;0.80;;;0.30;;
60233;SDS011;49514;43.538;-5.708;2023-03-17T18:46:27;1.48;;;0.50;;
60233;SDS011;49514;43.538;-5.708;2023-03-17T18:48:54;2.38;;;0.55;;
60233;SDS011;49514;43.538;-5.708;2023-03-17T18:51:21;1.65;;;0.60;;
60233;SDS011;49514;43.538;-5.708;2023-03-17T18:53:48;4.18;;;0.63;;
60233;SDS011;49514;43.538;-5.708;2023-03-17T18:56:15;2.78;;;0.45;;
60233;SDS011;49514;43.538;-5.708;2023-03-17T18:58:42;1.15;;;0.40;;
60233;SDS011;49514;43.538;-5.708;2023-03-17T19:01:09;3.60;;;0.65;;
60233;SDS011;49514;43.538;-5.708;2023-03-17T19:03:38;2.00;;;0.50;;
60233;SDS011;49514;43.538;-5.708;2023-03-17T19:06:12;0.85;;;0.43;;
60233;SDS011;49514;43.538;-5.708;2023-03-17T19:08:42;1.42;;;0.65;;
60233;SDS011;49514;43.538;-5.708;2023-03-17T19:11:10;2.22;;;0.77;;
60233;SDS011;49514;43.538;-5.708;2023-03-17T19:13:38;1.63;;;0.70;;
60233;SDS011;49514;43.538;-5.708;2023-03-17T19:16:07;1.65;;;0.70;;
60233;SDS011;49514;43.538;-5.708;2023-03-17T19:18:35;2.22;;;0.95;;
60233;SDS011;49514;43.538;-5.708;2023-03-17T19:21:04;3.88;;;1.08;;
60233;SDS011;49514;43.538;-5.708;2023-03-17T19:23:30;3.65;;;1.10;;
60233;SDS011;49514;43.538;-5.708;2023-03-17T19:25:59;2.15;;;0.90;;
60233;SDS011;49514;43.538;-5.708;2023-03-17T19:28:27;5.28;;;1.15;;
60233;SDS011;49514;43.538;-5.708;2023-03-17T19:30:54;3.03;;;0.90;;
60233;SDS011;49514;43.538;-5.708;2023-03-17T19:33:21;7.60;;;1.10;;
60233;SDS011;49514;43.538;-5.708;2023-03-17T19:35:51;9.48;;;1.30;;
60233;SDS011;49514;43.538;-5.708;2023-03-17T19:38:21;10.60;;;2.15;;
60233;SDS011;49514;43.538;-5.708;2023-03-17T19:40:50;13.57;;;1.65;;
60233;SDS011;49514;43.538;-5.708;2023-03-17T19:43:19;19.45;;;2.28;;
60233;SDS011;49514;43.538;-5.708;2023-03-17T19:45:46;5.22;;;1.38;;
60233;SDS011;49514;43.538;-5.708;2023-03-17T19:48:13;15.93;;;2.28;;
60233;SDS011;49514;43.538;-5.708;2023-03-17T19:50:40;12.02;;;2.28;;
60233;SDS011;49514;43.538;-5.708;2023-03-17T19:53:08;24.23;;;2.30;;
60233;SDS011;49514;43.538;-5.708;2023-03-17T19:55:35;15.57;;;1.85;;
60233;SDS011;49514;43.538;-5.708;2023-03-17T19:58:02;7.07;;;2.05;;
60233;SDS011;49514;43.538;-5.708;2023-03-17T20:00:30;6.00;;;1.45;;
60233;SDS011;49514;43.538;-5.708;2023-03-17T20:02:59;5.95;;;1.30;;
60233;SDS011;49514;43.538;-5.708;2023-03-17T20:05:26;4.18;;;1.40;;
60233;SDS011;49514;43.538;-5.708;2023-03-17T20:07:53;5.28;;;1.40;;
60233;SDS011;49514;43.538;-5.708;2023-03-17T20:10:20;6.95;;;1.58;;
60233;SDS011;49514;43.538;-5.708;2023-03-17T20:12:47;3.20;;;1.20;;
60233;SDS011;49514;43.538;-5.708;2023-03-17T20:15:14;3.58;;;1.48;;
60233;SDS011;49514;43.538;-5.708;2023-03-17T20:17:41;4.22;;;1.52;;
60233;SDS011;49514;43.538;-5.708;2023-03-17T20:20:09;6.25;;;1.60;;
60233;SDS011;49514;43.538;-5.708;2023-03-17T20:22:36;5.07;;;1.50;;
60233;SDS011;49514;43.538;-5.708;2023-03-17T20:25:05;3.97;;;1.50;;
60233;SDS011;49514;43.538;-5.708;2023-03-17T20:27:35;16.50;;;7.25;;
60233;SDS011;49514;43.538;-5.708;2023-03-17T20:30:03;7.85;;;3.85;;
60233;SDS011;49514;43.538;-5.708;2023-03-17T20:32:33;18.10;;;6.65;;
60233;SDS011;49514;43.538;-5.708;2023-03-17T20:35:01;4.47;;;2.33;;
60233;SDS011;49514;43.538;-5.708;2023-03-17T20:37:30;6.28;;;1.67;;
60233;SDS011;49514;43.538;-5.708;2023-03-17T20:39:57;5.30;;;1.30;;
60233;SDS011;49514;43.538;-5.708;2023-03-17T20:42:26;24.35;;;6.20;;
60233;SDS011;49514;43.538;-5.708;2023-03-17T20:44:53;22.15;;;3.75;;
60233;SDS011;49514;43.538;-5.708;2023-03-17T20:47:21;19.50;;;3.80;;
60233;SDS011;49514;43.538;-5.708;2023-03-17T20:49:48;17.52;;;4.60;;
60233;SDS011;49514;43.538;-5.708;2023-03-17T20:52:15;9.70;;;2.13;;
60233;SDS011;49514;43.538;-5.708;2023-03-17T20:54:42;7.43;;;1.60;;
60233;SDS011;49514;43.538;-5.708;2023-03-17T20:57:10;5.40;;;1.60;;
60233;SDS011;49514;43.538;-5.708;2023-03-17T20:59:39;4.57;;;1.70;;
60233;SDS011;49514;43.538;-5.708;2023-03-17T21:02:13;3.92;;;1.63;;
60233;SDS011;49514;43.538;-5.708;2023-03-17T21:04:45;2.28;;;1.17;;
60233;SDS011;49514;43.538;-5.708;2023-03-17T21:07:14;3.47;;;1.05;;
60233;SDS011;49514;43.538;-5.708;2023-03-17T21:09:43;8.98;;;1.92;;
60233;SDS011;49514;43.538;-5.708;2023-03-17T21:12:14;6.22;;;1.58;;
60233;SDS011;49514;43.538;-5.708;2023-03-17T21:14:43;5.60;;;1.02;;
60233;SDS011;49514;43.538;-5.708;2023-03-17T21:17:11;6.28;;;2.00;;
60233;SDS011;49514;43.538;-5.708;2023-03-17T21:19:38;6.30;;;2.30;;
60233;SDS011;49514;43.538;-5.708;2023-03-17T21:22:05;13.98;;;3.80;;
60233;SDS011;49514;43.538;-5.708;2023-03-17T21:24:34;11.20;;;3.28;;
60233;SDS011;49514;43.538;-5.708;2023-03-17T21:27:05;2.47;;;1.30;;
60233;SDS011;49514;43.538;-5.708;2023-03-17T21:29:36;3.50;;;1.43;;
60233;SDS011;49514;43.538;-5.708;2023-03-17T21:32:05;9.02;;;1.67;;
60233;SDS011;49514;43.538;-5.708;2023-03-17T21:34:33;17.20;;;2.10;;